EDT,Max TemperatureF,Mean TemperatureF,Min TemperatureF,Max Dew PointF,MeanDew PointF,Min DewpointF,Max Humidity, Mean Humidity, Min Humidity, Max Sea Level PressureIn, Mean Sea Level PressureIn, Min Sea Level PressureIn, Max VisibilityMiles, Mean VisibilityMiles, Min VisibilityMiles, Max Wind SpeedMPH, Mean Wind SpeedMPH, Max Gust SpeedMPH,PrecipitationIn, CloudCover, Events, WindDirDegrees
2013-3-1,39,37,35,34,32,30,93,80,70,29.67,29.62,29.55,10,10,10,20,14,25,0.00,7,,345
2013-3-2,39,37,35,36,30,27,93,76,65,29.68,29.65,29.61,10,10,10,15,11,18,0.00,7,,306
2013-3-3,37,35,33,36,32,28,100,86,75,29.63,29.60,29.57,10,10,2,17,10,22,0.00,8,,312
2013-3-4,39,36,33,34,27,23,100,73,52,29.69,29.61,29.57,10,10,4,25,19,36,0.00,6,,308
2013-3-5,41,37,33,36,33,27,93,82,70,30.06,29.92,29.69,10,10,7,24,18,32,0.00,7,,6
2013-3-6,41,39,37,36,34,28,93,85,65,30.10,30.05,30.00,10,8,4,31,19,45,0.00,7,,68
2013-3-7,37,36,35,36,35,34,100,94,87,29.99,29.94,29.90,7,4,2,44,35,56,0.00,8,,42
2013-3-8,42,38,33,36,32,27,100,87,57,30.08,29.95,29.85,10,5,1,38,32,50,0.00,7,,32
2013-3-9,39,37,35,34,30,28,87,76,65,30.34,30.23,30.09,10,10,8,29,22,40,0.00,5,,39
2013-3-10,39,36,33,32,30,28,87,76,70,30.41,30.37,30.33,10,10,10,17,11,22,0.00,7,,67
2013-3-11,46,40,35,39,36,30,93,85,71,30.35,30.27,30.19,10,10,10,15,10,22,0.00,4,,195
2013-3-12,55,48,42,52,45,39,100,88,76,30.21,30.01,29.78,10,9,3,21,14,32,0.00,5,,166
2013-3-13,53,47,41,50,36,27,93,71,53,29.78,29.75,29.70,10,9,2,17,12,26,0.00,3,,288
2013-3-14,39,32,26,28,20,12,70,56,44,29.80,29.76,29.70,10,10,8,26,12,33,0.00,6,,287
2013-3-15,39,31,23,28,15,9,70,53,33,29.86,29.76,29.66,10,10,9,30,22,39,0.00,4,,280
2013-3-16,35,32,28,28,18,10,75,52,38,29.88,29.81,29.67,10,10,10,25,15,34,0.00,3,,321
2013-3-17,35,32,28,25,16,10,80,50,35,30.32,30.04,29.87,10,10,10,22,9,26,0.00,1,,342
2013-3-18,33,30,26,28,14,7,100,54,43,30.46,30.37,30.28,10,10,2,21,11,26,0.00,3,,66
2013-3-19,42,36,30,41,35,27,100,94,86,30.28,29.80,29.48,9,4,0,33,15,44,0.00,8,,99
2013-3-20,39,34,28,28,22,19,93,64,45,29.84,29.75,29.63,10,10,10,30,20,38,0.00,3,,276
2013-3-21,35,32,30,34,26,19,100,74,56,29.83,29.72,29.59,10,9,2,15,9,20,0.00,6,,348
2013-3-22,37,34,30,32,26,21,100,77,52,29.73,29.65,29.58,10,7,1,23,14,28,0.00,5,,301
2013-3-23,42,36,30,25,23,21,70,57,42,29.76,29.70,29.64,10,10,10,25,21,32,0.00,1,,290
2013-3-24,42,36,30,30,26,21,93,64,46,29.83,29.78,29.75,10,10,10,22,15,32,0.00,0,,317
2013-3-25,46,38,30,36,31,27,100,75,49,29.77,29.63,29.48,10,10,5,23,10,31,0.00,3,,56
2013-3-26,44,40,35,34,28,19,87,64,37,29.76,29.64,29.48,10,10,10,29,17,37,0.00,3,,336
2013-3-27,50,44,37,36,30,25,87,63,37,29.85,29.79,29.75,10,10,10,14,11,22,0.00,1,,314
2013-3-28,44,40,37,37,35,30,93,81,61,30.02,29.93,29.84,10,10,8,21,13,25,0.00,8,,342
2013-3-29,50,44,39,37,36,32,87,74,50,30.05,30.02,29.99,10,10,10,13,7,,0.00,4,,285
2013-3-30,51,44,37,37,34,27,93,69,38,30.11,30.06,30.03,10,10,10,12,7,,0.00,2,,284
2013-3-31,55,42,30,39,32,23,100,69,33,30.14,30.07,29.82,10,10,5,17,6,23,0.00,2,,186